Time;durP1;ratioP1;P1;durP2;ratioP2;P2;SDS_P1;SDS_P2;PMS_P1;PMS_P2;Temp;Humidity;BMP_temperature;BMP_pressure;BME280_temperature;BME280_humidity;BME280_pressure;Samples;Min_cycle;Max_cycle;Signal;HPM_P1;HPM_P2
2021/06/21 00:00:20;;;;;;;13.18;4.97;;;;;;;;;;1461453;40;20407;-84
2021/06/21 00:01:21;;;;;;;8.48;4.30;;;;;;;;;;1464401;40;20425;-83
2021/06/21 00:02:25;;;;;;;6.93;4.30;;;;;;;;;;1462848;40;20431;-85
2021/06/21 00:03:27;;;;;;;5.35;4.70;;;;;;;;;;1457574;40;20398;-85
2021/06/21 00:04:30;;;;;;;8.00;4.83;;;;;;;;;;1462910;40;20523;-85
2021/06/21 00:05:52;;;;;;;6.70;4.47;;;;;;;;;;1468284;40;20673;-86
2021/06/21 00:07:16;;;;;;;6.60;4.43;;;;;;;;;;1449662;40;20421;-85
2021/06/21 00:08:20;;;;;;;6.72;4.75;;;;;;;;;;1446482;41;20747;-87
2021/06/21 00:09:23;;;;;;;7.10;4.97;;;;;;;;;;1441902;41;20421;-82
2021/06/21 00:10:25;;;;;;;8.68;4.82;;;;;;;;;;1445903;41;20451;-84
2021/06/21 00:11:27;;;;;;;7.75;4.28;;;;;;;;;;1445862;41;20420;-84
2021/06/21 00:12:28;;;;;;;9.25;5.80;;;;;;;;;;1445742;41;20564;-84
2021/06/21 00:13:30;;;;;;;8.07;4.70;;;;;;;;;;1442433;41;20473;-81
2021/06/21 00:14:31;;;;;;;8.25;5.10;;;;;;;;;;1442237;41;20741;-84
2021/06/21 00:15:33;;;;;;;7.40;5.00;;;;;;;;;;1445531;41;20424;-86
2021/06/21 00:16:35;;;;;;;6.53;4.90;;;;;;;;;;1448182;40;20812;-83
2021/06/21 00:17:37;;;;;;;8.98;4.72;;;;;;;;;;1453050;40;20558;-85
2021/06/21 00:18:39;;;;;;;8.38;4.57;;;;;;;;;;1446126;41;20430;-85
2021/06/21 00:19:40;;;;;;;7.90;4.78;;;;;;;;;;1442416;41;20454;-88
2021/06/21 00:20:42;;;;;;;5.22;4.60;;;;;;;;;;1446118;41;20797;-84
2021/06/21 00:21:44;;;;;;;6.88;4.95;;;;;;;;;;1446064;41;20560;-88
2021/06/21 00:22:47;;;;;;;6.65;4.20;;;;;;;;;;1446017;41;20506;-83
2021/06/21 00:23:48;;;;;;;10.05;5.20;;;;;;;;;;1444817;41;20478;-84
2021/06/21 00:24:50;;;;;;;6.18;4.43;;;;;;;;;;1445306;41;20439;-85
2021/06/21 00:25:51;;;;;;;8.38;4.78;;;;;;;;;;1449511;40;20466;-83
2021/06/21 00:26:53;;;;;;;9.27;4.65;;;;;;;;;;1450427;41;20527;-83
2021/06/21 00:27:55;;;;;;;7.88;4.32;;;;;;;;;;1445960;41;20449;-83
2021/06/21 00:28:56;;;;;;;6.80;4.75;;;;;;;;;;1450642;40;20547;-83
2021/06/21 00:29:58;;;;;;;7.70;4.30;;;;;;;;;;1449751;41;20497;-84
2021/06/21 00:31:00;;;;;;;7.30;4.68;;;;;;;;;;1445997;41;20463;-82
2021/06/21 00:32:02;;;;;;;6.25;4.18;;;;;;;;;;1450189;40;20913;-81
2021/06/21 00:33:04;;;;;;;6.65;4.28;;;;;;;;;;1453088;40;20419;-84
2021/06/21 00:34:05;;;;;;;11.93;5.07;;;;;;;;;;1450258;41;20904;-82
2021/06/21 00:35:08;;;;;;;7.13;3.63;;;;;;;;;;1445885;41;20423;-83
2021/06/21 00:36:09;;;;;;;9.38;3.70;;;;;;;;;;1449984;40;20788;-86
2021/06/21 00:37:11;;;;;;;7.63;4.15;;;;;;;;;;1454312;40;20440;-85
2021/06/21 00:38:13;;;;;;;12.50;4.90;;;;;;;;;;1449739;40;21101;-81
2021/06/21 00:39:15;;;;;;;10.95;4.35;;;;;;;;;;1457905;40;20429;-83
2021/06/21 00:40:17;;;;;;;6.53;4.75;;;;;;;;;;1462669;40;20520;-83
2021/06/21 00:41:18;;;;;;;6.38;4.68;;;;;;;;;;1461589;40;20441;-82
2021/06/21 00:42:20;;;;;;;9.65;4.53;;;;;;;;;;1457395;40;20466;-81
2021/06/21 00:43:22;;;;;;;7.88;3.90;;;;;;;;;;1458400;40;20410;-83
2021/06/21 00:44:24;;;;;;;6.53;4.13;;;;;;;;;;1462967;40;20830;-81
2021/06/21 00:45:25;;;;;;;6.93;4.20;;;;;;;;;;1463475;40;20544;-84
2021/06/21 00:46:28;;;;;;;6.72;4.07;;;;;;;;;;1457733;40;20489;-84
2021/06/21 00:47:29;;;;;;;6.80;4.32;;;;;;;;;;1468009;40;20451;-89
2021/06/21 00:48:31;;;;;;;7.30;4.28;;;;;;;;;;1472066;40;20495;-83
2021/06/21 00:49:33;;;;;;;8.30;3.70;;;;;;;;;;1467004;40;20421;-85
2021/06/21 00:50:34;;;;;;;9.43;4.37;;;;;;;;;;1464101;40;20665;-83
2021/06/21 00:51:36;;;;;;;7.57;4.00;;;;;;;;;;1469637;40;20399;-82
2021/06/21 00:52:38;;;;;;;7.35;4.55;;;;;;;;;;1470036;40;20410;-82
2021/06/21 00:53:40;;;;;;;7.13;5.10;;;;;;;;;;1473637;40;20479;-84
2021/06/21 00:54:43;;;;;;;7.57;4.20;;;;;;;;;;1467801;40;20427;-85
2021/06/21 00:55:45;;;;;;;7.53;4.43;;;;;;;;;;1467766;40;20443;-89
2021/06/21 00:56:48;;;;;;;6.15;4.68;;;;;;;;;;1470067;40;20427;-87
2021/06/21 00:57:50;;;;;;;8.73;4.57;;;;;;;;;;1464275;40;20395;-85
2021/06/21 00:58:58;;;;;;;7.95;4.78;;;;;;;;;;1464754;40;20417;-83
2021/06/21 01:00:05;;;;;;;8.75;4.70;;;;;;;;;;1469518;40;20593;-85
2021/06/21 01:01:07;;;;;;;6.85;4.65;;;;;;;;;;1469176;40;20427;-84
2021/06/21 01:02:08;;;;;;;5.40;3.50;;;;;;;;;;1469308;40;20403;-84
2021/06/21 01:03:10;;;;;;;8.70;4.13;;;;;;;;;;1467872;40;20545;-85
2021/06/21 01:04:11;;;;;;;8.45;4.50;;;;;;;;;;1467617;40;20431;-84
2021/06/21 01:05:26;;;;;;;5.53;4.47;;;;;;;;;;1467634;40;20416;-85
2021/06/21 01:06:28;;;;;;;7.75;4.50;;;;;;;;;;1467301;40;20405;-88
2021/06/21 01:07:30;;;;;;;9.35;4.47;;;;;;;;;;1470620;40;20414;-87
2021/06/21 01:08:31;;;;;;;6.75;4.10;;;;;;;;;;1462437;40;20451;-84
2021/06/21 01:09:33;;;;;;;6.07;4.28;;;;;;;;;;1458702;40;20487;-85
2021/06/21 01:10:37;;;;;;;8.13;4.70;;;;;;;;;;1470247;40;20483;-86
2021/06/21 01:11:53;;;;;;;8.88;4.43;;;;;;;;;;1463466;40;20422;-85
2021/06/21 01:13:04;;;;;;;6.30;4.50;;;;;;;;;;1465014;40;20410;-87
2021/06/21 01:14:11;;;;;;;5.82;4.57;;;;;;;;;;1468217;40;20461;-84
2021/06/21 01:15:16;;;;;;;7.15;4.88;;;;;;;;;;1462741;40;20744;-84
2021/06/21 01:16:30;;;;;;;7.97;4.68;;;;;;;;;;1465980;40;20506;-85
2021/06/21 01:17:41;;;;;;;9.55;5.20;;;;;;;;;;1472106;40;20403;-83
2021/06/21 01:18:48;;;;;;;8.82;4.90;;;;;;;;;;1471718;40;20718;-84
2021/06/21 01:20:02;;;;;;;8.07;4.78;;;;;;;;;;1468653;40;20762;-84
2021/06/21 01:21:54;;;;;;;6.57;4.70;;;;;;;;;;1463354;40;20413;-84
2021/06/21 01:23:09;;;;;;;8.98;4.90;;;;;;;;;;1455543;40;20971;-84
2021/06/21 01:24:49;;;;;;;7.97;5.22;;;;;;;;;;1458196;40;20420;-84
2021/06/21 01:26:01;;;;;;;4.97;4.47;;;;;;;;;;1456666;40;20451;-86
2021/06/21 01:27:23;;;;;;;8.60;4.80;;;;;;;;;;1455631;40;20492;-82
2021/06/21 01:28:31;;;;;;;9.15;4.50;;;;;;;;;;1457578;40;20424;-83
2021/06/21 01:29:52;;;;;;;7.20;4.40;;;;;;;;;;1463814;40;20412;-83
2021/06/21 01:31:07;;;;;;;5.90;4.07;;;;;;;;;;1462996;40;20421;-87
2021/06/21 01:32:29;;;;;;;9.50;4.68;;;;;;;;;;1462282;40;20411;-85
2021/06/21 01:33:32;;;;;;;6.57;4.10;;;;;;;;;;1464922;40;20407;-89
2021/06/21 01:34:35;;;;;;;7.65;4.20;;;;;;;;;;1462214;40;20494;-85
2021/06/21 01:35:41;;;;;;;5.85;4.00;;;;;;;;;;1459311;40;20444;-89
2021/06/21 01:36:48;;;;;;;7.78;4.40;;;;;;;;;;1467207;40;20413;-83
2021/06/21 01:37:54;;;;;;;9.10;4.53;;;;;;;;;;1466364;40;20425;-83
2021/06/21 01:38:59;;;;;;;5.65;3.70;;;;;;;;;;1466054;40;20409;-83
2021/06/21 01:40:02;;;;;;;12.68;4.05;;;;;;;;;;1470491;40;20435;-83
2021/06/21 01:41:11;;;;;;;7.45;4.30;;;;;;;;;;1471500;40;20541;-82
2021/06/21 01:42:15;;;;;;;6.00;4.00;;;;;;;;;;1471812;40;20457;-84
2021/06/21 01:43:20;;;;;;;7.25;4.18;;;;;;;;;;1466138;40;20478;-84
2021/06/21 01:44:26;;;;;;;7.15;4.30;;;;;;;;;;1467452;40;20542;-86
2021/06/21 01:45:28;;;;;;;7.95;4.50;;;;;;;;;;1471198;40;20406;-84
2021/06/21 01:46:33;;;;;;;6.32;3.97;;;;;;;;;;1471565;40;20424;-86
2021/06/21 01:47:54;;;;;;;10.27;5.00;;;;;;;;;;1467980;40;20429;-84
2021/06/21 01:49:01;;;;;;;7.88;4.22;;;;;;;;;;1466244;40;20469;-83
2021/06/21 01:50:04;;;;;;;8.15;4.13;;;;;;;;;;1460339;40;20438;-86
2021/06/21 01:51:06;;;;;;;6.68;4.72;;;;;;;;;;1458142;40;20491;-83
2021/06/21 01:52:10;;;;;;;7.28;4.20;;;;;;;;;;1458533;40;20530;-84
2021/06/21 01:53:22;;;;;;;8.30;4.60;;;;;;;;;;1460933;40;20409;-83
2021/06/21 01:54:26;;;;;;;6.80;4.57;;;;;;;;;;1466975;40;20769;-84
2021/06/21 01:55:29;;;;;;;10.73;5.00;;;;;;;;;;1467296;40;20467;-83
2021/06/21 01:56:37;;;;;;;6.75;4.93;;;;;;;;;;1462307;40;20461;-82
2021/06/21 01:57:40;;;;;;;6.28;4.90;;;;;;;;;;1462310;40;20422;-84
2021/06/21 01:58:43;;;;;;;9.52;4.65;;;;;;;;;;1467104;40;20490;-85
2021/06/21 01:59:49;;;;;;;6.03;4.60;;;;;;;;;;1467029;40;20414;-83
2021/06/21 02:00:51;;;;;;;7.45;4.28;;;;;;;;;;1462545;40;20873;-85
2021/06/21 02:01:57;;;;;;;8.75;4.57;;;;;;;;;;1462462;40;20417;-85
2021/06/21 02:03:00;;;;;;;6.10;3.95;;;;;;;;;;1464892;40;20491;-84
2021/06/21 02:04:06;;;;;;;9.23;4.68;;;;;;;;;;1462884;40;20428;-84
2021/06/21 02:05:12;;;;;;;4.40;3.90;;;;;;;;;;1462528;40;20521;-84
2021/06/21 02:06:14;;;;;;;8.23;4.07;;;;;;;;;;1465553;40;20821;-84
2021/06/21 02:07:17;;;;;;;5.68;3.47;;;;;;;;;;1466348;40;20697;-85
2021/06/21 02:08:20;;;;;;;5.47;4.13;;;;;;;;;;1461895;40;20572;-83
2021/06/21 02:09:24;;;;;;;6.53;3.97;;;;;;;;;;1454578;40;20492;-86
2021/06/21 02:10:27;;;;;;;11.52;4.00;;;;;;;;;;1459397;40;20777;-84
2021/06/21 02:11:28;;;;;;;6.15;3.60;;;;;;;;;;1466753;40;20407;-84
2021/06/21 02:12:31;;;;;;;5.15;3.28;;;;;;;;;;1466812;40;20485;-85
2021/06/21 02:13:34;;;;;;;6.00;3.80;;;;;;;;;;1470693;40;20408;-83
2021/06/21 02:14:36;;;;;;;6.70;3.53;;;;;;;;;;1466788;40;20447;-84
2021/06/21 02:15:38;;;;;;;8.10;3.65;;;;;;;;;;1467418;40;20408;-85
2021/06/21 02:16:42;;;;;;;8.50;4.25;;;;;;;;;;1471762;40;20525;-85
2021/06/21 02:17:44;;;;;;;8.02;3.63;;;;;;;;;;1470514;40;20413;-87
2021/06/21 02:18:48;;;;;;;5.70;3.80;;;;;;;;;;1464079;40;20885;-86
2021/06/21 02:19:54;;;;;;;6.30;3.83;;;;;;;;;;1458790;40;20423;-83
2021/06/21 02:20:56;;;;;;;5.55;4.10;;;;;;;;;;1459434;40;20708;-83
2021/06/21 02:21:58;;;;;;;8.25;4.07;;;;;;;;;;1459585;40;20429;-84
2021/06/21 02:23:01;;;;;;;7.15;3.55;;;;;;;;;;1458914;40;20419;-84
2021/06/21 02:24:03;;;;;;;8.55;3.90;;;;;;;;;;1463074;40;20807;-83
2021/06/21 02:25:06;;;;;;;9.05;4.07;;;;;;;;;;1459338;40;20804;-87
2021/06/21 02:26:08;;;;;;;8.80;4.15;;;;;;;;;;1455486;40;20838;-83
2021/06/21 02:27:10;;;;;;;5.53;3.92;;;;;;;;;;1460088;40;20411;-87
2021/06/21 02:28:13;;;;;;;4.22;3.60;;;;;;;;;;1460110;40;20425;-83
2021/06/21 02:29:19;;;;;;;6.47;4.00;;;;;;;;;;1460545;40;20426;-83
2021/06/21 02:30:21;;;;;;;6.15;3.40;;;;;;;;;;1462435;40;21129;-86
2021/06/21 02:31:23;;;;;;;6.40;4.18;;;;;;;;;;1465873;40;20433;-85
2021/06/21 02:32:25;;;;;;;7.47;3.80;;;;;;;;;;1468347;40;20399;-84
2021/06/21 02:33:27;;;;;;;5.10;4.53;;;;;;;;;;1467076;40;20437;-82
2021/06/21 02:34:30;;;;;;;5.13;3.78;;;;;;;;;;1466688;40;20416;-84
2021/06/21 02:35:32;;;;;;;6.38;4.13;;;;;;;;;;1463002;40;20416;-83
2021/06/21 02:36:34;;;;;;;5.38;3.90;;;;;;;;;;1459008;40;20806;-83
2021/06/21 02:37:36;;;;;;;6.28;3.90;;;;;;;;;;1462742;40;20464;-83
2021/06/21 02:38:38;;;;;;;6.07;4.07;;;;;;;;;;1462907;40;20461;-83
2021/06/21 02:39:39;;;;;;;7.80;3.63;;;;;;;;;;1459544;40;20486;-83
2021/06/21 02:40:42;;;;;;;6.00;3.97;;;;;;;;;;1463497;40;20707;-86
2021/06/21 02:41:44;;;;;;;6.60;4.07;;;;;;;;;;1468606;40;20427;-88
2021/06/21 02:42:46;;;;;;;6.65;4.57;;;;;;;;;;1471204;40;20854;-87
2021/06/21 02:43:47;;;;;;;5.57;4.10;;;;;;;;;;1464308;40;20425;-88
2021/06/21 02:44:49;;;;;;;5.95;4.18;;;;;;;;;;1460448;40;20407;-85
2021/06/21 02:45:51;;;;;;;8.18;4.47;;;;;;;;;;1460343;40;20451;-83
2021/06/21 02:46:52;;;;;;;7.32;3.90;;;;;;;;;;1464532;40;20420;-84
2021/06/21 02:47:54;;;;;;;8.40;3.72;;;;;;;;;;1466281;40;20421;-83
2021/06/21 02:48:56;;;;;;;5.32;4.05;;;;;;;;;;1466552;40;20474;-85
2021/06/21 02:50:03;;;;;;;6.00;3.83;;;;;;;;;;1465012;40;20590;-82
2021/06/21 02:51:08;;;;;;;5.75;4.25;;;;;;;;;;1458776;40;20434;-82
2021/06/21 02:52:43;;;;;;;6.78;4.13;;;;;;;;;;1455658;40;20480;-84
2021/06/21 02:54:07;;;;;;;6.45;4.05;;;;;;;;;;1458184;40;20407;-86
2021/06/21 02:55:11;;;;;;;6.63;4.47;;;;;;;;;;1462409;40;20484;-84
2021/06/21 02:56:25;;;;;;;6.72;4.43;;;;;;;;;;1468265;40;20561;-82
2021/06/21 02:57:29;;;;;;;5.22;3.90;;;;;;;;;;1468924;40;20407;-85
2021/06/21 02:58:35;;;;;;;6.80;4.10;;;;;;;;;;1473560;40;20413;-84
2021/06/21 02:59:40;;;;;;;6.88;4.35;;;;;;;;;;1469350;40;20774;-85
2021/06/21 03:00:42;;;;;;;6.90;3.83;;;;;;;;;;1467849;40;20463;-85
2021/06/21 03:01:48;;;;;;;9.40;4.30;;;;;;;;;;1467285;40;20748;-83
2021/06/21 03:02:55;;;;;;;5.65;4.40;;;;;;;;;;1467757;40;20395;-83
2021/06/21 03:03:59;;;;;;;7.35;4.35;;;;;;;;;;1468551;40;20554;-82
2021/06/21 03:05:02;;;;;;;8.77;4.22;;;;;;;;;;1468111;40;21028;-82
2021/06/21 03:06:06;;;;;;;6.80;3.88;;;;;;;;;;1462058;40;20422;-85
2021/06/21 03:07:11;;;;;;;8.02;4.20;;;;;;;;;;1463490;40;20409;-84
2021/06/21 03:08:13;;;;;;;4.57;4.18;;;;;;;;;;1467272;40;20840;-84
2021/06/21 03:09:18;;;;;;;8.70;4.07;;;;;;;;;;1467272;40;20446;-82
2021/06/21 03:10:20;;;;;;;5.30;4.03;;;;;;;;;;1467728;40;20423;-84
2021/06/21 03:11:25;;;;;;;7.15;4.35;;;;;;;;;;1467975;40;20471;-83
2021/06/21 03:12:29;;;;;;;7.60;4.22;;;;;;;;;;1467579;40;20435;-85
2021/06/21 03:13:31;;;;;;;6.63;4.37;;;;;;;;;;1467802;40;20501;-83
2021/06/21 03:14:34;;;;;;;6.72;4.43;;;;;;;;;;1463061;40;20440;-85
2021/06/21 03:15:36;;;;;;;9.95;4.88;;;;;;;;;;1459402;40;20522;-83
2021/06/21 03:16:41;;;;;;;6.20;4.43;;;;;;;;;;1463257;40;20799;-83
2021/06/21 03:17:43;;;;;;;10.88;5.05;;;;;;;;;;1458365;40;20399;-87
2021/06/21 03:18:47;;;;;;;9.50;5.10;;;;;;;;;;1456676;40;20418;-84
2021/06/21 03:19:52;;;;;;;9.15;5.00;;;;;;;;;;1467689;40;20418;-85
2021/06/21 03:20:56;;;;;;;6.90;5.55;;;;;;;;;;1462657;40;20424;-84
2021/06/21 03:21:57;;;;;;;7.68;4.95;;;;;;;;;;1460505;40;20426;-85
2021/06/21 03:23:01;;;;;;;8.40;4.47;;;;;;;;;;1455444;40;20420;-85
2021/06/21 03:24:03;;;;;;;8.35;5.05;;;;;;;;;;1457796;40;20848;-82
2021/06/21 03:25:06;;;;;;;7.20;4.97;;;;;;;;;;1459874;40;20430;-84
2021/06/21 03:26:08;;;;;;;11.65;5.63;;;;;;;;;;1460087;40;20840;-81
2021/06/21 03:27:09;;;;;;;12.05;5.95;;;;;;;;;;1465706;40;21060;-87
2021/06/21 03:28:13;;;;;;;7.22;4.93;;;;;;;;;;1467184;40;20447;-85
2021/06/21 03:29:18;;;;;;;7.73;5.67;;;;;;;;;;1467854;40;20898;-84
2021/06/21 03:30:21;;;;;;;11.10;5.28;;;;;;;;;;1472177;40;20409;-86
2021/06/21 03:31:24;;;;;;;8.18;5.30;;;;;;;;;;1467565;40;20427;-85
2021/06/21 03:32:32;;;;;;;7.55;5.30;;;;;;;;;;1464132;40;20401;-88
2021/06/21 03:33:35;;;;;;;11.32;5.18;;;;;;;;;;1463719;40;20433;-84
2021/06/21 03:34:36;;;;;;;9.70;6.43;;;;;;;;;;1464803;40;20942;-85
2021/06/21 03:35:38;;;;;;;7.60;5.43;;;;;;;;;;1467651;40;20428;-86
2021/06/21 03:36:40;;;;;;;10.43;5.60;;;;;;;;;;1468623;40;20427;-85
2021/06/21 03:37:44;;;;;;;6.10;5.13;;;;;;;;;;1464641;40;20423;-85
2021/06/21 03:38:46;;;;;;;9.55;6.05;;;;;;;;;;1464456;40;20477;-91
2021/06/21 03:39:48;;;;;;;6.65;5.18;;;;;;;;;;1466978;40;20431;-86
2021/06/21 03:40:50;;;;;;;10.23;5.83;;;;;;;;;;1468737;40;20544;-91
2021/06/21 03:41:52;;;;;;;10.18;5.88;;;;;;;;;;1460794;40;20423;-90
2021/06/21 03:42:54;;;;;;;8.20;5.43;;;;;;;;;;1465028;40;20422;-87
2021/06/21 03:43:55;;;;;;;9.45;6.20;;;;;;;;;;1468831;40;20416;-87
2021/06/21 03:44:57;;;;;;;11.85;5.90;;;;;;;;;;1464868;40;20419;-86
2021/06/21 03:46:00;;;;;;;12.00;5.90;;;;;;;;;;1464590;40;20422;-86
2021/06/21 03:47:03;;;;;;;8.75;5.88;;;;;;;;;;1469205;40;20460;-85
2021/06/21 03:48:05;;;;;;;6.47;5.68;;;;;;;;;;1472892;40;20443;-87
2021/06/21 03:49:07;;;;;;;6.18;5.53;;;;;;;;;;1472842;40;20419;-87
2021/06/21 03:50:10;;;;;;;10.15;5.88;;;;;;;;;;1464488;40;20407;-87
2021/06/21 03:51:11;;;;;;;12.52;6.38;;;;;;;;;;1455904;40;20493;-85
2021/06/21 03:52:14;;;;;;;10.35;5.65;;;;;;;;;;1460501;40;20432;-86
2021/06/21 03:53:16;;;;;;;10.90;5.50;;;;;;;;;;1464753;40;20461;-86
2021/06/21 03:54:18;;;;;;;8.95;5.85;;;;;;;;;;1469058;40;20464;-85
2021/06/21 03:55:20;;;;;;;10.90;5.72;;;;;;;;;;1468852;40;20440;-85
2021/06/21 03:56:22;;;;;;;8.18;5.53;;;;;;;;;;1468252;40;20433;-84
2021/06/21 03:57:23;;;;;;;10.45;5.38;;;;;;;;;;1464426;40;20511;-86
2021/06/21 03:58:25;;;;;;;8.82;5.57;;;;;;;;;;1467770;40;20445;-85
2021/06/21 03:59:27;;;;;;;10.63;5.82;;;;;;;;;;1465381;40;20405;-85
2021/06/21 04:00:30;;;;;;;8.75;4.75;;;;;;;;;;1461161;40;20687;-83
2021/06/21 04:01:32;;;;;;;7.97;5.28;;;;;;;;;;1460295;40;20725;-84
2021/06/21 04:02:34;;;;;;;9.18;5.38;;;;;;;;;;1463253;40;20924;-85
2021/06/21 04:03:35;;;;;;;9.32;5.25;;;;;;;;;;1466928;40;20836;-85
2021/06/21 04:04:37;;;;;;;9.48;5.45;;;;;;;;;;1463179;40;20491;-87
2021/06/21 04:05:40;;;;;;;7.90;5.13;;;;;;;;;;1463578;40;20797;-85
2021/06/21 04:06:42;;;;;;;7.28;5.22;;;;;;;;;;1463287;40;20409;-85
2021/06/21 04:07:45;;;;;;;7.53;5.63;;;;;;;;;;1460562;40;20466;-85
2021/06/21 04:08:46;;;;;;;6.53;4.95;;;;;;;;;;1465936;40;20835;-85
2021/06/21 04:09:49;;;;;;;8.70;5.65;;;;;;;;;;1470789;40;20475;-85
2021/06/21 04:10:51;;;;;;;7.88;5.95;;;;;;;;;;1473027;40;20433;-86
2021/06/21 04:11:53;;;;;;;8.60;5.22;;;;;;;;;;1472109;40;20415;-84
2021/06/21 04:12:54;;;;;;;8.55;5.63;;;;;;;;;;1472117;40;20474;-85
2021/06/21 04:13:58;;;;;;;6.13;4.60;;;;;;;;;;1475796;40;20422;-85
2021/06/21 04:14:59;;;;;;;9.90;6.10;;;;;;;;;;1475515;40;20656;-84
2021/06/21 04:16:01;;;;;;;8.85;4.95;;;;;;;;;;1475946;40;20476;-85
2021/06/21 04:17:03;;;;;;;10.00;5.13;;;;;;;;;;1474899;40;20425;-84
2021/06/21 04:18:08;;;;;;;8.32;4.65;;;;;;;;;;1471963;40;20438;-84
2021/06/21 04:19:10;;;;;;;7.53;5.07;;;;;;;;;;1467217;40;20419;-85
2021/06/21 04:20:16;;;;;;;8.45;5.10;;;;;;;;;;1460533;40;20422;-84
2021/06/21 04:21:18;;;;;;;10.40;5.28;;;;;;;;;;1459757;40;20407;-84
2021/06/21 04:22:19;;;;;;;7.97;5.75;;;;;;;;;;1463082;40;20437;-87
2021/06/21 04:23:21;;;;;;;7.50;4.97;;;;;;;;;;1466960;40;20427;-84
2021/06/21 04:24:23;;;;;;;9.02;5.82;;;;;;;;;;1467344;40;20412;-86
2021/06/21 04:25:26;;;;;;;7.28;5.00;;;;;;;;;;1463404;40;20432;-85
2021/06/21 04:26:27;;;;;;;9.98;6.47;;;;;;;;;;1467536;40;20439;-83
2021/06/21 04:27:29;;;;;;;9.43;5.55;;;;;;;;;;1471626;40;20414;-84
2021/06/21 04:28:31;;;;;;;7.65;5.47;;;;;;;;;;1467059;40;20419;-86
2021/06/21 04:29:32;;;;;;;10.93;6.10;;;;;;;;;;1462958;40;20446;-85
2021/06/21 04:30:35;;;;;;;9.20;5.18;;;;;;;;;;1467228;40;20498;-85
2021/06/21 04:31:36;;;;;;;8.52;5.57;;;;;;;;;;1467487;40;20493;-86
2021/06/21 04:32:39;;;;;;;8.70;5.25;;;;;;;;;;1459156;40;20407;-87
2021/06/21 04:33:41;;;;;;;10.30;5.82;;;;;;;;;;1459150;40;20816;-85
2021/06/21 04:34:43;;;;;;;8.10;5.35;;;;;;;;;;1460129;40;20455;-86
2021/06/21 04:35:44;;;;;;;10.00;5.85;;;;;;;;;;1456049;40;20436;-85
2021/06/21 04:36:46;;;;;;;9.93;5.45;;;;;;;;;;1456087;40;20435;-86
2021/06/21 04:37:48;;;;;;;7.63;5.45;;;;;;;;;;1459338;40;20454;-85
2021/06/21 04:38:50;;;;;;;8.80;4.90;;;;;;;;;;1464183;40;20433;-85
2021/06/21 04:39:51;;;;;;;8.13;5.63;;;;;;;;;;1459502;40;20553;-86
2021/06/21 04:40:53;;;;;;;10.40;5.78;;;;;;;;;;1459814;40;20423;-86
2021/06/21 04:41:55;;;;;;;10.73;5.72;;;;;;;;;;1455369;40;20523;-85
2021/06/21 04:42:57;;;;;;;12.82;5.60;;;;;;;;;;1451957;40;20462;-86
2021/06/21 04:43:59;;;;;;;8.50;5.68;;;;;;;;;;1455480;40;20420;-85
2021/06/21 04:45:01;;;;;;;10.07;5.28;;;;;;;;;;1455278;40;20548;-85
2021/06/21 04:46:04;;;;;;;7.40;5.00;;;;;;;;;;1455604;40;20467;-87
2021/06/21 04:47:06;;;;;;;10.35;6.00;;;;;;;;;;1461576;40;20441;-84
2021/06/21 04:48:09;;;;;;;8.32;5.57;;;;;;;;;;1466463;40;20402;-87
2021/06/21 04:49:14;;;;;;;9.45;5.53;;;;;;;;;;1463648;40;20428;-86
2021/06/21 04:50:18;;;;;;;11.65;5.55;;;;;;;;;;1459913;40;20399;-84
2021/06/21 04:51:20;;;;;;;7.53;5.47;;;;;;;;;;1463752;40;20420;-85
2021/06/21 04:52:25;;;;;;;8.35;5.50;;;;;;;;;;1463458;40;20520;-86
2021/06/21 04:53:27;;;;;;;10.82;6.10;;;;;;;;;;1462897;40;20425;-86
2021/06/21 04:54:28;;;;;;;10.48;6.13;;;;;;;;;;1463589;40;20465;-84
2021/06/21 04:55:30;;;;;;;11.27;6.32;;;;;;;;;;1463578;40;20413;-84
2021/06/21 04:56:34;;;;;;;8.98;5.45;;;;;;;;;;1463418;40;20479;-84
2021/06/21 04:57:37;;;;;;;11.63;5.45;;;;;;;;;;1463315;40;20425;-86
2021/06/21 04:58:39;;;;;;;10.27;5.65;;;;;;;;;;1463242;40;20460;-88
2021/06/21 04:59:40;;;;;;;9.63;6.80;;;;;;;;;;1459391;40;20417;-85
2021/06/21 05:00:42;;;;;;;11.32;6.90;;;;;;;;;;1462857;40;20428;-85
2021/06/21 05:01:44;;;;;;;9.13;6.25;;;;;;;;;;1464187;40;20715;-87
2021/06/21 05:02:47;;;;;;;9.23;6.15;;;;;;;;;;1463999;40;20488;-86
2021/06/21 05:03:56;;;;;;;10.50;6.13;;;;;;;;;;1458935;40;20626;-86
2021/06/21 05:04:58;;;;;;;6.75;5.65;;;;;;;;;;1458954;40;21037;-83
2021/06/21 05:05:59;;;;;;;10.85;5.63;;;;;;;;;;1462900;40;20429;-86
2021/06/21 05:07:03;;;;;;;11.45;6.47;;;;;;;;;;1455541;40;20529;-85
2021/06/21 05:08:05;;;;;;;10.07;5.43;;;;;;;;;;1456328;40;20432;-86
2021/06/21 05:09:09;;;;;;;10.25;5.63;;;;;;;;;;1463172;40;20464;-87
2021/06/21 05:10:13;;;;;;;12.68;6.55;;;;;;;;;;1464099;40;20536;-85
2021/06/21 05:11:14;;;;;;;9.52;5.70;;;;;;;;;;1463681;40;20450;-88
2021/06/21 05:12:16;;;;;;;12.02;5.90;;;;;;;;;;1451684;40;20668;-85
2021/06/21 05:13:18;;;;;;;10.18;6.38;;;;;;;;;;1455579;40;20889;-87
2021/06/21 05:14:20;;;;;;;7.78;5.75;;;;;;;;;;1467137;40;20412;-87
2021/06/21 05:15:22;;;;;;;13.05;5.85;;;;;;;;;;1467166;40;20829;-86
2021/06/21 05:16:24;;;;;;;11.20;5.30;;;;;;;;;;1460254;40;20420;-86
2021/06/21 05:17:27;;;;;;;7.07;5.43;;;;;;;;;;1463738;40;20549;-87
2021/06/21 05:18:28;;;;;;;9.68;5.70;;;;;;;;;;1462573;40;20409;-88
2021/06/21 05:19:30;;;;;;;11.45;5.22;;;;;;;;;;1458633;40;20422;-87
2021/06/21 05:20:32;;;;;;;10.75;5.53;;;;;;;;;;1467331;40;20435;-86
2021/06/21 05:21:33;;;;;;;9.75;5.40;;;;;;;;;;1466844;40;20423;-88
2021/06/21 05:22:35;;;;;;;11.48;5.40;;;;;;;;;;1467558;40;20415;-86
2021/06/21 05:23:37;;;;;;;8.90;5.95;;;;;;;;;;1467233;40;20542;-86
2021/06/21 05:24:39;;;;;;;9.25;5.25;;;;;;;;;;1458899;40;20423;-87
2021/06/21 05:25:40;;;;;;;9.65;5.30;;;;;;;;;;1458052;40;20431;-87
2021/06/21 05:26:42;;;;;;;10.23;5.82;;;;;;;;;;1463531;40;20415;-85
2021/06/21 05:27:45;;;;;;;10.82;5.28;;;;;;;;;;1463269;40;20439;-88
2021/06/21 05:28:47;;;;;;;6.10;4.53;;;;;;;;;;1466809;40;20418;-86
2021/06/21 05:29:49;;;;;;;10.00;5.72;;;;;;;;;;1467282;40;20486;-87
2021/06/21 05:30:50;;;;;;;9.90;5.28;;;;;;;;;;1466588;40;20793;-86
2021/06/21 05:31:52;;;;;;;10.20;5.30;;;;;;;;;;1463790;40;20424;-87
2021/06/21 05:32:54;;;;;;;9.70;5.07;;;;;;;;;;1463247;40;20417;-85
2021/06/21 05:33:55;;;;;;;9.63;4.82;;;;;;;;;;1466577;40;20434;-87
2021/06/21 05:34:57;;;;;;;10.38;5.40;;;;;;;;;;1462957;40;20530;-89
2021/06/21 05:35:59;;;;;;;9.18;5.55;;;;;;;;;;1462721;40;20905;-86
2021/06/21 05:37:00;;;;;;;9.30;4.90;;;;;;;;;;1465679;40;20426;-88
2021/06/21 05:38:02;;;;;;;9.45;5.32;;;;;;;;;;1466621;40;20411;-87
2021/06/21 05:39:04;;;;;;;8.57;4.93;;;;;;;;;;1464895;40;20427;-84
2021/06/21 05:40:06;;;;;;;8.20;5.28;;;;;;;;;;1471041;40;20794;-86
2021/06/21 05:41:08;;;;;;;7.80;4.88;;;;;;;;;;1471497;40;20430;-86
2021/06/21 05:42:10;;;;;;;7.35;4.60;;;;;;;;;;1471322;40;20413;-85
2021/06/21 05:43:12;;;;;;;8.13;4.43;;;;;;;;;;1471134;40;20700;-87
2021/06/21 05:44:16;;;;;;;8.10;5.25;;;;;;;;;;1466778;40;20415;-87
2021/06/21 05:45:17;;;;;;;9.30;5.25;;;;;;;;;;1466898;40;20486;-86
2021/06/21 05:46:20;;;;;;;8.43;5.00;;;;;;;;;;1466245;40;20423;-87
2021/06/21 05:47:22;;;;;;;9.82;5.43;;;;;;;;;;1454984;40;20422;-88
2021/06/21 05:48:23;;;;;;;5.82;4.38;;;;;;;;;;1458834;40;20418;-86
2021/06/21 05:49:29;;;;;;;8.18;5.28;;;;;;;;;;1463013;40;20448;-86
2021/06/21 05:50:30;;;;;;;8.35;4.57;;;;;;;;;;1466362;40;20659;-85
2021/06/21 05:51:32;;;;;;;7.50;4.60;;;;;;;;;;1467946;40;20426;-89
2021/06/21 05:52:34;;;;;;;7.80;4.47;;;;;;;;;;1467576;40;20411;-85
2021/06/21 05:53:37;;;;;;;8.13;4.28;;;;;;;;;;1466948;40;20486;-86
2021/06/21 05:54:39;;;;;;;6.88;4.60;;;;;;;;;;1467587;40;20431;-87
2021/06/21 05:55:40;;;;;;;7.78;4.60;;;;;;;;;;1467356;40;20419;-85
2021/06/21 05:56:42;;;;;;;7.15;4.82;;;;;;;;;;1466841;40;20453;-86
2021/06/21 05:57:44;;;;;;;9.27;5.00;;;;;;;;;;1466264;40;20796;-87
2021/06/21 05:58:45;;;;;;;9.95;5.18;;;;;;;;;;1467468;40;20513;-89
2021/06/21 05:59:47;;;;;;;6.30;4.57;;;;;;;;;;1463196;40;20427;-88
2021/06/21 06:00:49;;;;;;;7.78;4.53;;;;;;;;;;1462914;40;20849;-90
2021/06/21 06:01:50;;;;;;;10.95;4.93;;;;;;;;;;1458079;40;20434;-86
2021/06/21 06:02:52;;;;;;;7.27;4.80;;;;;;;;;;1459733;40;20700;-86
2021/06/21 06:03:55;;;;;;;6.22;4.60;;;;;;;;;;1467784;40;20395;-86
2021/06/21 06:04:58;;;;;;;8.25;5.15;;;;;;;;;;1471652;40;20418;-85
2021/06/21 06:06:01;;;;;;;6.32;4.85;;;;;;;;;;1472131;40;20432;-86
2021/06/21 06:07:03;;;;;;;5.40;4.43;;;;;;;;;;1459567;40;20519;-87
2021/06/21 06:08:05;;;;;;;7.00;4.57;;;;;;;;;;1449517;40;20457;-86
2021/06/21 06:09:07;;;;;;;5.25;4.10;;;;;;;;;;1462905;40;20787;-85
2021/06/21 06:10:10;;;;;;;5.85;3.97;;;;;;;;;;1464114;40;20436;-86
2021/06/21 06:11:13;;;;;;;7.13;4.40;;;;;;;;;;1463586;40;20424;-86
2021/06/21 06:12:16;;;;;;;7.53;4.15;;;;;;;;;;1464844;40;20708;-85
2021/06/21 06:13:19;;;;;;;6.93;4.30;;;;;;;;;;1464940;40;20938;-86
2021/06/21 06:14:20;;;;;;;5.93;4.00;;;;;;;;;;1466053;40;20482;-86
2021/06/21 06:15:23;;;;;;;7.55;4.00;;;;;;;;;;1466333;40;20409;-86
2021/06/21 06:16:25;;;;;;;6.45;4.07;;;;;;;;;;1467085;40;20441;-87
2021/06/21 06:17:27;;;;;;;5.60;3.40;;;;;;;;;;1471994;40;20416;-88
2021/06/21 06:18:29;;;;;;;5.35;3.50;;;;;;;;;;1469984;40;20673;-86
2021/06/21 06:19:31;;;;;;;5.90;3.88;;;;;;;;;;1466008;40;20490;-87
2021/06/21 06:20:33;;;;;;;6.32;3.00;;;;;;;;;;1463635;40;20499;-86